Tropical Cyclones
[Index]
Main Index Home Page Stock Weather Photos Extreme Storms Discussion Storm News and Storm Chasing Reports Tropical Cyclones / Hurricanes / Typhoons Weather Data and Links Wild Fires / Bushfires Weather Observation Techniques Weather Picture Catalogue Tornado Pictures and Reports Stock Video Footage and DVDs for sale
Season 1992-1993 Tropical Cyclone LENA Track Map
Season 1992-1993 Summaries: [BoM-AU] [JTWC-AU] [JTWC-SIO] [JTWC-SPAC] [JTWC-SH]
<<- Previous TC | JTWC 1992-1993 Season | Next TC ->>

click for intensity scale information  Lat/long Grid: Show Hide

 Date Labels: Show Hide

Joint Typhoon Warning Centre Cyclone Data

Name: LENA

22 Jan 1993 18:00 UTC to 02 Feb 1993 12:00 UTC

    date/time    lat    long     hPa   cat  kts
1993-01-22 18   14.2   119.8                  20          
1993-01-23 00   13.8   120.0                  25          
1993-01-23 06   13.5   120.3                  25          
1993-01-23 12   13.6   120.7                  25          
1993-01-23 18   14.0   120.8                  25          
1993-01-24 00   14.3   120.6                  30          
1993-01-24 06   14.6   120.2                  35          
1993-01-24 12   14.8   119.5                  35          
1993-01-24 18   15.0   118.9            1     40          
1993-01-25 00   15.3   118.9            1     45          
1993-01-25 06   15.6   119.0            1     45          
1993-01-25 12   15.9   118.9            1     50          
1993-01-25 18   16.2   118.6            1     50          
1993-01-26 00   16.2   118.1            2     55          
1993-01-26 06   16.1   117.6            2     55          
1993-01-26 12   15.9   117.1            1     50          
1993-01-26 18   15.6   116.7            1     50          
1993-01-27 00   15.4   116.1            1     50          
1993-01-27 06   15.4   115.3            1     50          
1993-01-27 12   15.5   114.5            1     50          
1993-01-27 18   15.6   113.7            1     50          
1993-01-28 00   15.7   112.7            1     50          
1993-01-28 06   15.8   111.6            1     45          
1993-01-28 12   15.9   110.5            1     40          
1993-01-28 18   15.9   109.9            1     40          
1993-01-29 00   15.9   109.4                  35          
1993-01-29 06   15.9   109.0                  35          
1993-01-29 12   15.8   108.8                  35          
1993-01-29 18   15.7   108.8                  35          
1993-01-30 00   15.7   108.9                  35          
1993-01-30 06   15.7   109.0                  35          
1993-01-30 12   15.8   109.1                  35          
1993-01-30 18   15.9   109.2                  35          
1993-01-31 00   15.9   109.4                  35          
1993-01-31 06   16.0   109.7                  35          
1993-01-31 12   16.2   110.1                  35          
1993-01-31 18   16.2   110.6                  35          
1993-02-01 00   16.2   111.4                  35          
1993-02-01 06   16.2   112.4                  30          
1993-02-01 12   16.2   113.4                  30          
1993-02-01 18   16.2   114.4                  30          
1993-02-02 00   16.1   115.4                  30          
1993-02-02 06   16.1   116.5                  30          
1993-02-02 12   16.1   117.6                  30          
Winds are 1-min average.

Tropical cyclone tracks developed by Michael Bath using data from the Joint Typhoon Warning Centre Best Tracks and Google Maps.


[Australian Severe Weather index] [Copyright Notice] [Email Contacts] [Search This Site] [Privacy Policy]
Document: tropical_cyclone_lena.htm Updated: 18 September 2016